Time;durP1;ratioP1;P1;durP2;ratioP2;P2;SDS_P1;SDS_P2;PMS_P1;PMS_P2;Temp;Humidity;BMP_temperature;BMP_pressure;BME280_temperature;BME280_humidity;BME280_pressure;Samples;Min_cycle;Max_cycle;Signal;HPM_P1;HPM_P2
2023/01/22 00:01:56;;;;;;;6.20;4.03;;;;;;;14.60;50.53;100227.72;4986473;28;20543;-78
2023/01/22 00:04:21;;;;;;;6.60;4.05;;;;;;;14.61;50.51;100226.81;4982238;28;20065;-79
2023/01/22 00:06:46;;;;;;;6.85;3.88;;;;;;;14.60;50.52;100232.97;4986241;28;20035;-78
2023/01/22 00:09:14;;;;;;;5.55;3.67;;;;;;;14.60;50.59;100231.22;4979427;28;20033;-78
2023/01/22 00:11:40;;;;;;;6.00;3.70;;;;;;;14.63;50.48;100225.03;4980467;28;20037;-79
2023/01/22 00:14:05;;;;;;;5.95;3.85;;;;;;;14.62;50.33;100233.78;4983690;28;20022;-79
2023/01/22 00:16:30;;;;;;;6.10;3.70;;;;;;;14.62;50.45;100228.53;4982068;28;20030;-78
2023/01/22 00:18:56;;;;;;;6.43;4.03;;;;;;;14.62;50.57;100233.78;4988470;28;20106;-79
2023/01/22 00:21:21;;;;;;;6.18;3.95;;;;;;;14.62;50.60;100233.78;4989493;28;20089;-79
2023/01/22 00:23:47;;;;;;;6.55;3.47;;;;;;;14.63;50.89;100232.91;4991509;28;20046;-79
2023/01/22 00:26:14;;;;;;;7.20;3.88;;;;;;;14.62;50.55;100231.16;4991021;28;20121;-78
2023/01/22 00:28:41;;;;;;;6.80;3.47;;;;;;;14.63;50.45;100223.25;4992757;28;20080;-79
2023/01/22 00:31:08;;;;;;;6.00;3.63;;;;;;;14.64;50.56;100226.75;4991754;28;20499;-78
2023/01/22 00:33:33;;;;;;;6.30;3.55;;;;;;;14.63;50.39;100225.88;4993189;28;20046;-79
2023/01/22 00:36:04;;;;;;;6.18;3.60;;;;;;;14.65;50.57;100225.84;4993234;28;20431;-79
2023/01/22 00:38:30;;;;;;;5.30;3.17;;;;;;;14.69;50.59;100231.91;4993247;28;20030;-79
2023/01/22 00:41:00;;;;;;;5.50;3.60;;;;;;;14.67;50.63;100225.81;4993141;28;20037;-79
2023/01/22 00:43:25;;;;;;;5.68;3.42;;;;;;;14.65;50.71;100228.47;4992698;28;20388;-79
2023/01/22 00:45:50;;;;;;;5.47;3.10;;;;;;;14.68;50.32;100230.19;4996346;28;20027;-79
2023/01/22 00:48:16;;;;;;;5.85;3.33;;;;;;;14.68;50.40;100238.06;4997319;28;20031;-79
2023/01/22 00:50:41;;;;;;;5.13;3.03;;;;;;;14.66;50.57;100240.72;4997083;28;20126;-79
2023/01/22 00:53:06;;;;;;;5.63;3.30;;;;;;;14.69;50.76;100245.03;4995766;28;20030;-79
2023/01/22 00:55:32;;;;;;;5.85;3.63;;;;;;;14.71;50.52;100244.09;4980855;28;20035;-79
2023/01/22 00:57:57;;;;;;;6.70;3.45;;;;;;;14.72;50.39;100248.44;4977250;28;20023;-79
2023/01/22 01:00:23;;;;;;;4.93;3.17;;;;;;;14.72;50.46;100245.81;4977261;28;20408;-79
2023/01/22 01:05:32;;;;;;;4.57;2.83;;;;;;;14.74;50.38;100240.53;4980763;28;20037;-79
2023/01/22 01:07:57;;;;;;;5.97;3.15;;;;;;;14.74;50.54;100241.47;4977389;28;20031;-79
2023/01/22 01:10:23;;;;;;;5.45;3.40;;;;;;;14.73;50.36;100237.03;4979474;28;20384;-79
2023/01/22 01:12:48;;;;;;;5.15;3.33;;;;;;;14.72;50.60;100244.97;4977082;28;20015;-80
2023/01/22 01:15:14;;;;;;;5.45;3.65;;;;;;;14.75;50.56;100245.81;4989332;28;20411;-79
2023/01/22 01:17:39;;;;;;;4.68;3.03;;;;;;;14.75;50.44;100245.81;4996587;28;20033;-79
2023/01/22 01:20:05;;;;;;;5.15;3.20;;;;;;;14.71;50.54;100249.34;4996539;28;20376;-79
2023/01/22 01:22:30;;;;;;;4.50;2.60;;;;;;;14.73;50.44;100255.44;4996711;28;20408;-79
2023/01/22 01:24:56;;;;;;;5.13;2.88;;;;;;;14.75;50.62;100253.69;4996572;28;20034;-79
2023/01/22 01:27:21;;;;;;;4.75;2.85;;;;;;;14.76;50.47;100259.78;4996244;28;20033;-79
2023/01/22 01:29:46;;;;;;;4.00;2.60;;;;;;;14.75;50.44;100260.69;4996317;28;20126;-79
2023/01/22 01:32:12;;;;;;;4.63;2.85;;;;;;;14.77;50.64;100259.75;4996239;28;20038;-79
2023/01/22 01:34:37;;;;;;;4.20;2.70;;;;;;;14.77;50.45;100265.00;4986855;28;20027;-78
2023/01/22 01:37:02;;;;;;;4.53;2.75;;;;;;;14.76;50.44;100276.44;4976737;28;20473;-79
2023/01/22 01:39:28;;;;;;;4.40;2.63;;;;;;;14.74;50.62;100274.69;4976999;28;20054;-79
2023/01/22 01:41:53;;;;;;;4.45;2.40;;;;;;;14.75;50.57;100277.34;4976570;28;20030;-78
2023/01/22 01:44:22;;;;;;;4.75;2.63;;;;;;;14.79;50.54;100282.50;4976988;28;20050;-79
2023/01/22 01:46:52;;;;;;;4.60;2.70;;;;;;;14.79;50.38;100285.13;4976914;28;20400;-79
2023/01/22 01:49:26;;;;;;;5.38;2.97;;;;;;;14.82;50.60;100292.97;4977029;28;20110;-79
2023/01/22 01:51:55;;;;;;;3.53;2.38;;;;;;;14.80;50.39;100289.47;4976707;28;20041;-79
2023/01/22 01:54:21;;;;;;;4.38;2.60;;;;;;;14.78;50.50;100289.53;4981780;28;20022;-79
2023/01/22 01:56:50;;;;;;;4.40;2.50;;;;;;;14.82;50.37;100298.22;4995770;28;20027;-78
2023/01/22 01:59:18;;;;;;;4.03;2.45;;;;;;;14.83;50.42;100299.94;4995570;28;20057;-79
2023/01/22 02:01:50;;;;;;;5.18;2.53;;;;;;;14.82;50.69;100303.47;4987947;28;20023;-79
2023/01/22 02:04:15;;;;;;;3.80;2.60;;;;;;;14.83;50.39;100299.94;4981090;28;20042;-79
2023/01/22 02:06:41;;;;;;;4.80;2.63;;;;;;;14.79;50.54;100296.53;4995551;28;20056;-79
2023/01/22 02:09:06;;;;;;;3.95;2.40;;;;;;;14.82;50.66;100303.47;4995496;28;20117;-79
2023/01/22 02:11:33;;;;;;;4.53;2.50;;;;;;;14.85;50.59;100308.66;4995695;28;20033;-78
2023/01/22 02:14:05;;;;;;;3.90;2.20;;;;;;;14.82;50.58;100309.56;4993107;28;20101;-79
2023/01/22 02:16:31;;;;;;;3.08;2.08;;;;;;;14.84;50.50;100304.28;4976267;28;20122;-79
2023/01/22 02:18:57;;;;;;;4.32;2.38;;;;;;;14.84;50.48;100306.91;4981890;28;20097;-79
2023/01/22 02:21:27;;;;;;;4.00;2.45;;;;;;;14.85;50.47;100298.13;4994219;28;20026;-79
2023/01/22 02:23:52;;;;;;;3.88;2.05;;;;;;;14.84;50.66;100309.56;4993912;28;20376;-79
2023/01/22 02:26:18;;;;;;;3.95;2.22;;;;;;;14.84;50.54;100309.56;4995552;28;20026;-79
2023/01/22 02:28:43;;;;;;;4.20;2.47;;;;;;;14.85;50.48;100309.53;4995477;28;20105;-79
2023/01/22 02:31:09;;;;;;;4.18;2.50;;;;;;;14.87;50.58;100309.50;4995316;28;20026;-78
2023/01/22 02:33:34;;;;;;;5.70;2.20;;;;;;;14.87;50.48;100307.72;4994078;28;20113;-79
2023/01/22 02:35:59;;;;;;;3.97;2.15;;;;;;;14.87;50.60;100312.97;4976862;28;20469;-79
2023/01/22 02:38:25;;;;;;;4.53;2.35;;;;;;;14.84;50.53;100312.19;4974212;28;20082;-79
2023/01/22 02:40:50;;;;;;;4.25;2.20;;;;;;;14.86;50.45;100315.63;4975562;28;20518;-79
2023/01/22 02:43:16;;;;;;;4.45;2.45;;;;;;;14.86;50.52;100311.25;4973737;28;20105;-78
2023/01/22 02:45:41;;;;;;;3.80;2.20;;;;;;;14.87;50.48;100314.75;4991136;28;20077;-78
2023/01/22 02:48:07;;;;;;;3.88;2.40;;;;;;;14.86;50.52;100313.88;4994995;28;20361;-78
2023/01/22 02:50:32;;;;;;;4.03;2.30;;;;;;;14.87;50.54;100322.63;4994990;28;20033;-79
2023/01/22 02:52:58;;;;;;;5.05;2.38;;;;;;;14.86;50.33;100310.38;4994519;28;20026;-78
2023/01/22 02:55:23;;;;;;;4.25;2.35;;;;;;;14.87;50.40;100306.88;4981627;28;20027;-78
2023/01/22 02:57:49;;;;;;;3.95;2.25;;;;;;;14.89;50.45;100313.81;4975351;28;20105;-79
2023/01/22 03:00:14;;;;;;;3.15;2.08;;;;;;;14.89;50.37;100308.56;4974933;28;20043;-79
2023/01/22 03:02:40;;;;;;;3.47;2.13;;;;;;;14.90;50.34;100309.41;4987337;28;20076;-78
2023/01/22 03:05:06;;;;;;;4.55;2.08;;;;;;;14.90;50.39;100314.66;4983997;28;20080;-79
2023/01/22 03:07:41;;;;;;;3.42;1.67;;;;;;;14.91;50.40;100319.03;4974299;28;20039;-78
2023/01/22 03:10:26;;;;;;;3.42;2.10;;;;;;;14.88;50.50;100316.47;4975322;28;20034;-79
2023/01/22 03:21:19;;;;;;;3.13;1.85;;;;;;;14.90;50.62;100312.03;4993939;28;20038;-78
2023/01/22 03:23:48;;;;;;;4.55;2.53;;;;;;;14.93;50.37;100313.75;4994300;28;20022;-79
2023/01/22 03:26:14;;;;;;;3.35;2.05;;;;;;;14.91;50.54;100313.75;4994315;28;20046;-79
2023/01/22 03:28:40;;;;;;;3.85;2.20;;;;;;;14.89;50.45;100308.56;4994117;28;20476;-79
2023/01/22 03:31:05;;;;;;;3.22;1.80;;;;;;;14.92;50.33;100310.25;4994193;28;20054;-79
2023/01/22 03:33:32;;;;;;;3.00;1.80;;;;;;;14.94;50.42;100304.94;4992862;28;20062;-79
2023/01/22 03:36:09;;;;;;;3.25;1.90;;;;;;;14.90;50.17;100296.28;4976660;28;20030;-78
2023/01/22 03:38:35;;;;;;;3.28;1.83;;;;;;;14.92;50.34;100306.75;4974506;28;20054;-78
2023/01/22 03:41:12;;;;;;;3.40;1.90;;;;;;;14.90;50.42;100296.28;4974609;28;20031;-79
2023/01/22 03:43:38;;;;;;;3.17;1.88;;;;;;;14.92;50.39;100299.75;4974313;28;20038;-79
2023/01/22 03:46:10;;;;;;;3.40;1.92;;;;;;;14.95;50.36;100299.66;4992152;28;20038;-78
2023/01/22 03:48:36;;;;;;;3.05;1.73;;;;;;;14.95;50.45;100298.78;4994042;28;20126;-78
2023/01/22 03:51:11;;;;;;;3.03;1.85;;;;;;;14.94;50.41;100303.19;4994275;28;20050;-78
2023/01/22 03:53:37;;;;;;;3.97;1.98;;;;;;;14.95;50.50;100301.41;4984985;28;20026;-79
2023/01/22 03:56:06;;;;;;;2.60;1.60;;;;;;;14.93;50.57;100298.84;4974271;28;20030;-78
2023/01/22 03:58:32;;;;;;;2.30;1.58;;;;;;;14.96;50.51;100296.13;4974187;28;20054;-79
2023/01/22 04:01:10;;;;;;;2.92;1.67;;;;;;;14.94;50.38;100299.69;4975786;28;20035;-78
2023/01/22 04:03:36;;;;;;;2.78;1.65;;;;;;;14.95;50.42;100299.66;4985444;28;20023;-79
2023/01/22 04:06:01;;;;;;;2.88;1.90;;;;;;;14.96;50.36;100308.44;4973819;28;20065;-78
2023/01/22 04:08:29;;;;;;;3.28;1.77;;;;;;;14.99;50.55;100305.72;4974147;28;20027;-79
2023/01/22 04:10:56;;;;;;;2.55;1.70;;;;;;;14.96;50.38;100311.91;4974173;28;20028;-79
2023/01/22 04:13:26;;;;;;;2.97;2.00;;;;;;;14.99;50.56;100313.59;4980500;28;20229;-79
2023/01/22 04:15:51;;;;;;;3.05;1.88;;;;;;;14.96;50.41;100322.41;4993526;28;20022;-79
2023/01/22 04:18:17;;;;;;;3.47;2.03;;;;;;;14.99;50.34;100317.09;4993215;28;20026;-78
2023/01/22 04:20:42;;;;;;;3.42;1.90;;;;;;;14.95;50.31;100320.69;4992674;28;20130;-79
2023/01/22 04:23:08;;;;;;;2.88;1.80;;;;;;;14.97;50.35;100311.00;4989026;28;20027;-78
2023/01/22 04:25:34;;;;;;;3.00;1.75;;;;;;;14.99;50.55;100321.50;4974012;28;20507;-78
2023/01/22 04:28:00;;;;;;;3.33;1.85;;;;;;;14.98;50.54;100315.38;4974069;28;20082;-79
2023/01/22 04:30:26;;;;;;;2.72;1.65;;;;;;;14.99;50.38;100321.50;4972674;28;20027;-79
2023/01/22 04:32:51;;;;;;;3.63;2.08;;;;;;;15.01;50.55;100336.31;4975758;28;20035;-79
2023/01/22 04:35:16;;;;;;;3.25;1.80;;;;;;;14.99;50.47;100337.25;4993018;28;20105;-79
2023/01/22 04:37:42;;;;;;;3.15;1.70;;;;;;;14.99;50.29;100348.66;4991823;28;20054;-79
2023/01/22 04:40:09;;;;;;;3.28;1.63;;;;;;;15.00;50.48;100355.63;4993263;28;20041;-78
2023/01/22 04:42:34;;;;;;;3.78;2.00;;;;;;;14.99;50.34;100353.91;4993241;28;20479;-79
2023/01/22 04:45:00;;;;;;;3.05;1.83;;;;;;;14.99;50.18;100346.03;4974085;28;20111;-79
2023/01/22 04:47:26;;;;;;;3.40;1.85;;;;;;;14.97;50.39;100345.16;4973839;28;20105;-79
2023/01/22 04:49:52;;;;;;;3.58;1.95;;;;;;;14.97;50.47;100355.69;4973398;28;20073;-79
2023/01/22 04:52:17;;;;;;;2.53;1.55;;;;;;;15.00;50.48;100360.88;4973919;28;20027;-79
2023/01/22 04:54:43;;;;;;;3.08;1.65;;;;;;;14.99;50.43;100361.78;5001382;28;20030;-79
2023/01/22 04:57:09;;;;;;;2.28;1.63;;;;;;;14.99;50.57;100359.16;4995693;28;20145;-79
2023/01/22 04:59:34;;;;;;;2.92;1.75;;;;;;;14.99;50.40;100374.94;4992915;28;20049;-79
2023/01/22 05:02:00;;;;;;;3.20;1.98;;;;;;;15.00;50.17;100370.53;4985277;28;20026;-79
2023/01/22 05:04:25;;;;;;;3.40;1.88;;;;;;;15.00;50.30;100370.53;4987256;28;20132;-79
2023/01/22 05:06:51;;;;;;;3.78;2.20;;;;;;;14.99;50.47;100368.81;4993004;28;20443;-79
2023/01/22 05:09:16;;;;;;;2.60;1.60;;;;;;;15.01;50.40;100367.88;4993068;28;20434;-78
2023/01/22 05:11:42;;;;;;;2.83;1.70;;;;;;;15.03;50.44;100365.22;4992887;28;20034;-79
2023/01/22 05:14:07;;;;;;;3.15;1.85;;;;;;;15.01;50.18;100367.88;4981433;28;20170;-79
2023/01/22 05:16:33;;;;;;;3.67;1.70;;;;;;;15.00;50.30;100366.16;4973479;28;20077;-78
2023/01/22 05:18:58;;;;;;;2.70;1.73;;;;;;;15.00;50.37;100366.16;4979137;28;20010;-78
2023/01/22 05:21:24;;;;;;;2.83;1.85;;;;;;;15.00;50.13;100375.78;4992676;28;20031;-78
2023/01/22 05:23:49;;;;;;;3.00;1.70;;;;;;;15.02;50.32;100380.09;4992759;28;20027;-79
2023/01/22 05:26:15;;;;;;;2.67;1.77;;;;;;;15.01;50.32;100383.63;4992832;28;20030;-78
2023/01/22 05:28:40;;;;;;;3.38;1.90;;;;;;;15.00;50.04;100381.91;4992744;28;20026;-78
2023/01/22 05:31:06;;;;;;;3.90;2.17;;;;;;;15.02;50.45;100390.63;4994755;28;20026;-78
2023/01/22 05:33:32;;;;;;;2.83;1.65;;;;;;;15.03;50.24;100402.88;4989595;28;20030;-78
2023/01/22 05:35:59;;;;;;;3.20;1.70;;;;;;;15.01;50.38;100394.16;4975640;28;20511;-78
2023/01/22 05:38:25;;;;;;;3.22;1.92;;;;;;;15.00;50.07;100389.81;4976867;28;20023;-78
2023/01/22 05:40:50;;;;;;;2.50;1.70;;;;;;;15.03;50.13;100397.59;4976694;28;20031;-78
2023/01/22 05:43:16;;;;;;;2.70;1.85;;;;;;;15.01;50.13;100394.16;4981076;28;20502;-79
2023/01/22 05:45:41;;;;;;;2.83;1.65;;;;;;;15.03;50.03;100394.97;4996380;28;20395;-79
2023/01/22 05:48:07;;;;;;;3.08;1.85;;;;;;;15.04;49.95;100387.97;4996123;28;20368;-78
2023/01/22 05:50:32;;;;;;;3.25;1.80;;;;;;;15.03;50.06;100392.34;4996367;28;20022;-79
2023/01/22 05:52:58;;;;;;;3.00;1.90;;;;;;;15.03;50.30;100392.34;4994453;28;20534;-79
2023/01/22 05:55:23;;;;;;;4.10;2.17;;;;;;;15.03;50.27;100387.09;4976618;28;20039;-78
2023/01/22 05:57:49;;;;;;;3.40;2.03;;;;;;;15.07;50.17;100394.94;4976707;28;20015;-78
2023/01/22 06:00:15;;;;;;;2.78;1.73;;;;;;;15.03;50.16;100387.09;4976102;28;20057;-78
2023/01/22 06:02:40;;;;;;;3.10;1.85;;;;;;;15.03;50.14;100384.47;4990500;28;20037;-79
2023/01/22 06:05:07;;;;;;;3.47;1.73;;;;;;;15.05;50.28;100388.84;4977051;28;20391;-78
2023/01/22 06:07:32;;;;;;;3.33;1.98;;;;;;;15.04;50.21;100395.84;4976295;28;20042;-78
2023/01/22 06:09:58;;;;;;;2.88;1.55;;;;;;;15.06;50.44;100401.09;4975138;28;20484;-78
2023/01/22 06:12:23;;;;;;;2.05;1.58;;;;;;;15.05;50.10;100391.47;4976335;28;20023;-78
2023/01/22 06:14:49;;;;;;;3.60;2.13;;;;;;;15.05;50.24;100388.84;4991033;28;20392;-78
2023/01/22 06:17:15;;;;;;;3.10;1.70;;;;;;;15.06;50.16;100390.56;4995354;28;20022;-79
2023/01/22 06:19:40;;;;;;;3.03;1.77;;;;;;;15.07;49.89;100393.19;4995345;28;20415;-78
2023/01/22 06:22:06;;;;;;;3.22;1.83;;;;;;;15.06;49.97;100386.16;4994322;28;20404;-78
2023/01/22 06:24:31;;;;;;;3.53;1.90;;;;;;;15.07;50.18;100400.19;4994152;28;20029;-78
2023/01/22 06:26:56;;;;;;;3.15;1.80;;;;;;;15.07;49.93;100397.56;4995372;28;20018;-78
2023/01/22 06:29:22;;;;;;;3.83;2.20;;;;;;;15.05;50.28;100402.00;4995553;28;20029;-79
2023/01/22 06:31:47;;;;;;;3.00;1.73;;;;;;;15.07;50.17;100402.81;4995055;28;20030;-79
2023/01/22 06:34:13;;;;;;;4.03;2.15;;;;;;;15.09;50.09;100416.78;4984017;28;20026;-78
2023/01/22 06:36:39;;;;;;;3.20;2.10;;;;;;;15.09;50.13;100417.66;4975791;28;20030;-78
2023/01/22 06:39:04;;;;;;;3.67;2.08;;;;;;;15.08;50.01;100415.06;4975890;28;20054;-79
2023/01/22 06:41:29;;;;;;;3.78;1.95;;;;;;;15.06;50.06;100422.97;4975164;28;20473;-78
2023/01/22 06:43:55;;;;;;;3.25;1.92;;;;;;;15.09;50.05;100429.91;4983839;28;20076;-78
2023/01/22 06:46:20;;;;;;;2.80;1.80;;;;;;;15.08;49.83;100415.06;4994671;28;20029;-78
2023/01/22 06:48:46;;;;;;;3.05;2.15;;;;;;;15.08;50.00;100421.19;4995141;28;20022;-78
2023/01/22 06:51:11;;;;;;;3.00;1.98;;;;;;;15.08;50.09;100408.03;4995150;28;20049;-79
2023/01/22 06:53:38;;;;;;;3.58;2.10;;;;;;;15.06;50.04;100406.34;4988753;28;20400;-78
2023/01/22 06:56:04;;;;;;;3.20;1.80;;;;;;;15.08;50.14;100404.53;4975599;28;20106;-78
2023/01/22 06:58:29;;;;;;;3.47;2.03;;;;;;;15.03;50.08;100413.38;4974966;28;20114;-77
2023/01/22 07:01:00;;;;;;;3.45;1.77;;;;;;;15.08;49.88;100415.06;4976625;28;20034;-78
2023/01/22 07:03:25;;;;;;;3.10;1.80;;;;;;;15.08;49.89;100407.16;4990297;28;20046;-79
2023/01/22 07:05:59;;;;;;;2.78;1.75;;;;;;;15.10;49.80;100408.00;4975196;28;20061;-78
2023/01/22 07:08:25;;;;;;;3.53;2.03;;;;;;;15.08;49.81;100412.44;4975445;28;20038;-78
2023/01/22 07:10:51;;;;;;;3.65;1.90;;;;;;;15.09;49.99;100419.41;4976928;28;20117;-78
2023/01/22 07:13:16;;;;;;;3.28;2.15;;;;;;;15.10;49.87;100423.75;4977773;28;20117;-79
2023/01/22 07:15:42;;;;;;;4.47;1.63;;;;;;;15.10;49.88;100418.50;4994458;28;20054;-78
2023/01/22 07:18:09;;;;;;;4.43;2.30;;;;;;;15.09;50.06;100427.28;4994515;28;20026;-78
2023/01/22 07:20:35;;;;;;;3.42;2.30;;;;;;;15.11;50.05;100430.78;4994197;28;20484;-77
2023/01/22 07:23:01;;;;;;;2.83;1.60;;;;;;;15.13;50.20;100439.50;4994254;28;20026;-78
2023/01/22 07:25:26;;;;;;;3.10;1.85;;;;;;;15.11;49.97;100436.03;4994261;28;20484;-77
2023/01/22 07:27:57;;;;;;;3.60;2.05;;;;;;;15.11;50.04;100433.41;4994016;28;20026;-78
2023/01/22 07:30:23;;;;;;;3.75;2.00;;;;;;;15.08;49.86;100436.09;4994325;28;20030;-77
2023/01/22 07:32:48;;;;;;;3.38;2.15;;;;;;;15.12;49.82;100453.53;4994119;28;20037;-78
2023/01/22 07:35:14;;;;;;;3.10;1.80;;;;;;;15.13;49.89;100442.13;4975729;28;20034;-78
2023/01/22 07:37:39;;;;;;;2.85;1.70;;;;;;;15.12;49.79;100454.38;4974687;28;20456;-77
2023/01/22 07:40:05;;;;;;;4.03;2.42;;;;;;;15.13;49.95;100452.63;4974663;28;20073;-78
2023/01/22 07:42:31;;;;;;;3.67;1.92;;;;;;;15.11;50.02;100454.44;4974244;28;20128;-78
2023/01/22 07:44:56;;;;;;;3.10;1.92;;;;;;;15.11;50.01;100446.56;4990261;28;20030;-77
2023/01/22 07:47:22;;;;;;;3.28;2.00;;;;;;;15.14;49.82;100449.09;4994056;28;20066;-78
2023/01/22 07:49:47;;;;;;;3.58;2.00;;;;;;;15.13;49.94;100455.25;4993903;28;20026;-78
2023/01/22 07:52:12;;;;;;;3.75;2.10;;;;;;;15.13;49.85;100455.25;4993810;28;20161;-78
2023/01/22 07:54:38;;;;;;;3.58;1.90;;;;;;;15.13;49.94;100464.03;4980256;28;20031;-78
2023/01/22 07:57:03;;;;;;;3.90;2.00;;;;;;;15.13;49.81;100466.66;4973980;28;20548;-78
2023/01/22 07:59:29;;;;;;;3.70;2.20;;;;;;;15.13;49.98;100464.03;4974269;28;20046;-78
2023/01/22 08:01:55;;;;;;;3.78;2.10;;;;;;;15.16;49.99;100476.25;4983497;28;20026;-78
2023/01/22 08:04:20;;;;;;;3.10;1.90;;;;;;;15.15;49.95;100469.22;4982867;28;20033;-78
2023/01/22 08:06:45;;;;;;;3.53;2.20;;;;;;;15.13;50.18;100471.03;4974006;28;20077;-78
2023/01/22 08:09:11;;;;;;;3.80;2.03;;;;;;;15.17;49.86;100477.97;4988041;28;20031;-78
2023/01/22 08:11:36;;;;;;;3.78;1.92;;;;;;;15.16;49.96;100482.34;4993191;28;20034;-79
2023/01/22 08:14:02;;;;;;;3.72;2.10;;;;;;;15.19;50.04;100484.06;4985237;28;20026;-79
2023/01/22 08:16:28;;;;;;;3.53;1.83;;;;;;;15.22;49.92;100489.28;4974168;28;20492;-79
2023/01/22 08:18:54;;;;;;;4.22;2.28;;;;;;;15.20;50.12;100482.31;4980037;28;20054;-78
2023/01/22 08:21:20;;;;;;;2.95;2.00;;;;;;;15.20;49.86;100488.41;4993440;28;20030;-78
2023/01/22 08:23:45;;;;;;;2.72;1.75;;;;;;;15.20;49.87;100475.25;4993311;28;20462;-78
2023/01/22 08:26:11;;;;;;;3.90;2.25;;;;;;;15.19;50.07;100481.44;4992928;28;20022;-78
2023/01/22 08:28:37;;;;;;;3.90;2.20;;;;;;;15.21;50.00;100484.88;4993261;28;20154;-78
2023/01/22 08:31:03;;;;;;;3.50;2.03;;;;;;;15.21;49.98;100490.13;4993413;28;20061;-79
2023/01/22 08:33:32;;;;;;;3.15;2.03;;;;;;;15.22;50.07;100502.41;4989673;28;20034;-78
2023/01/22 08:35:57;;;;;;;4.60;2.10;;;;;;;15.22;50.07;100505.03;4978595;28;20543;-79
2023/01/22 08:38:23;;;;;;;4.68;2.20;;;;;;;15.22;49.81;100506.78;4987060;28;20022;-78
2023/01/22 08:40:52;;;;;;;3.42;2.00;;;;;;;15.22;50.11;100517.31;4992690;28;20034;-79
2023/01/22 08:43:18;;;;;;;3.47;2.08;;;;;;;15.23;49.88;100529.56;4987488;28;20034;-79
2023/01/22 08:45:49;;;;;;;3.00;1.80;;;;;;;15.20;50.13;100527.84;4988067;28;20049;-79
2023/01/22 08:48:15;;;;;;;3.25;2.08;;;;;;;15.23;49.79;100524.28;4984230;28;20484;-79
2023/01/22 08:50:40;;;;;;;3.40;2.00;;;;;;;15.23;49.92;100519.91;4981207;28;20030;-79
2023/01/22 08:53:05;;;;;;;2.80;1.80;;;;;;;15.22;49.93;100528.72;4985135;28;20137;-78
2023/01/22 08:55:31;;;;;;;3.00;1.90;;;;;;;15.26;50.07;100524.25;4979695;28;20031;-78
2023/01/22 08:57:57;;;;;;;4.32;2.67;;;;;;;15.24;49.93;100524.28;4993051;28;20125;-78
2023/01/22 09:00:24;;;;;;;4.03;2.25;;;;;;;15.26;49.85;100514.59;4984865;28;20058;-78
2023/01/22 09:02:49;;;;;;;3.95;2.60;;;;;;;15.27;49.99;100520.72;4975201;28;20110;-78
2023/01/22 09:05:15;;;;;;;3.17;2.17;;;;;;;15.26;49.92;100519.84;4974761;28;20616;-77
2023/01/22 09:07:41;;;;;;;4.03;2.10;;;;;;;15.26;50.06;100530.34;4983584;28;20037;-77
2023/01/22 09:10:11;;;;;;;3.88;2.15;;;;;;;15.26;49.87;100519.00;4994691;28;20027;-79
2023/01/22 09:12:36;;;;;;;3.42;2.30;;;;;;;15.26;50.16;100535.63;4986044;28;20027;-81
2023/01/22 09:15:02;;;;;;;4.47;2.92;;;;;;;15.24;50.23;100531.28;4986330;28;20030;-80
2023/01/22 09:17:28;;;;;;;4.10;2.90;;;;;;;15.23;50.49;100535.69;4992137;28;20022;-80
2023/01/22 09:19:53;;;;;;;4.63;2.85;;;;;;;15.26;50.25;100546.13;4985780;28;20027;-80
2023/01/22 09:22:19;;;;;;;5.10;3.20;;;;;;;15.28;50.27;100539.09;4977467;28;20031;-80
2023/01/22 09:24:45;;;;;;;6.88;3.40;;;;;;;15.28;50.39;100532.97;4976841;28;20034;-80
2023/01/22 09:27:12;;;;;;;6.30;3.40;;;;;;;15.28;50.61;100528.59;4977096;28;20027;-80
2023/01/22 09:29:37;;;;;;;6.35;3.65;;;;;;;15.31;50.48;100522.41;4977060;28;20022;-80
2023/01/22 09:32:03;;;;;;;6.38;3.60;;;;;;;15.33;50.61;100523.22;4977241;28;20027;-79
2023/01/22 09:34:28;;;;;;;8.13;3.80;;;;;;;15.35;50.52;100523.19;4987342;28;20022;-79
2023/01/22 09:36:54;;;;;;;7.43;3.80;;;;;;;15.39;50.70;100524.84;4996383;28;20511;-80
2023/01/22 09:39:19;;;;;;;5.35;3.80;;;;;;;15.38;50.48;100520.50;4996019;28;20073;-79
2023/01/22 09:41:50;;;;;;;6.82;3.92;;;;;;;15.40;50.74;100518.72;4996377;28;20030;-79
2023/01/22 09:44:37;;;;;;;7.28;4.13;;;;;;;15.41;50.72;100508.13;4989516;28;20027;-79
2023/01/22 09:47:23;;;;;;;7.35;4.00;;;;;;;15.42;50.66;100528.31;4981766;28;20087;-79
2023/01/22 09:49:55;;;;;;;7.65;4.78;;;;;;;15.44;50.75;100534.41;4994377;28;20057;-79
2023/01/22 09:52:26;;;;;;;8.07;4.75;;;;;;;15.46;51.06;100537.00;4993770;28;20504;-80
2023/01/22 09:54:52;;;;;;;6.70;3.97;;;;;;;15.48;50.83;100527.31;4989156;28;20378;-80
2023/01/22 09:57:18;;;;;;;6.72;4.10;;;;;;;15.54;51.18;100535.06;4991491;28;20058;-80
2023/01/22 09:59:49;;;;;;;7.50;4.22;;;;;;;15.52;51.18;100542.13;4990843;28;20105;-80
2023/01/22 10:02:35;;;;;;;6.85;4.45;;;;;;;15.59;51.33;100536.75;4989101;28;20066;-79
2023/01/22 10:05:23;;;;;;;8.80;5.22;;;;;;;15.57;51.22;100523.63;4987833;28;20385;-80
2023/01/22 10:07:59;;;;;;;12.05;6.38;;;;;;;15.62;51.16;100531.41;4979775;28;20035;-80
2023/01/22 10:10:26;;;;;;;14.50;7.60;;;;;;;15.63;51.15;100527.88;4991590;28;20567;-80
2023/01/22 10:13:11;;;;;;;17.05;8.10;;;;;;;15.62;51.44;100536.66;4995389;28;20499;-80
2023/01/22 10:15:37;;;;;;;13.15;7.53;;;;;;;15.64;51.01;100550.66;4984057;28;20508;-81
2023/01/22 10:18:19;;;;;;;14.30;8.02;;;;;;;15.63;51.01;100538.38;4994275;28;20064;-80
2023/01/22 10:20:45;;;;;;;14.25;7.60;;;;;;;15.65;51.17;100542.72;4990289;28;20029;-80
2023/01/22 10:23:17;;;;;;;16.08;9.15;;;;;;;15.70;51.39;100558.44;4989344;28;20019;-80
2023/01/22 10:25:42;;;;;;;26.10;13.27;;;;;;;15.69;51.47;100556.69;5009608;28;20418;-81
2023/01/22 10:28:09;;;;;;;33.50;14.60;;;;;;;15.71;51.52;100563.63;4985640;28;20034;-80
2023/01/22 10:30:44;;;;;;;37.80;18.80;;;;;;;15.70;51.75;100559.28;4987759;28;20381;-80
2023/01/22 10:33:21;;;;;;;26.10;12.90;;;;;;;15.74;51.79;100567.13;4984934;28;20165;-81
2023/01/22 10:35:50;;;;;;;23.40;9.52;;;;;;;15.74;51.88;100569.75;4987931;28;20496;-79
2023/01/22 10:38:28;;;;;;;15.40;8.05;;;;;;;15.74;52.04;100557.44;4989614;28;20427;-80
2023/01/22 10:40:59;;;;;;;12.43;7.03;;;;;;;15.75;51.93;100548.69;4983206;28;20122;-81
2023/01/22 10:43:34;;;;;;;13.13;6.40;;;;;;;15.80;52.04;100546.78;4978544;28;20035;-79
2023/01/22 10:46:16;;;;;;;11.88;5.88;;;;;;;15.81;52.04;100552.94;4986128;28;20019;-78
2023/01/22 10:48:41;;;;;;;10.55;5.90;;;;;;;15.78;52.25;100553.84;4987890;28;20019;-77
2023/01/22 10:51:21;;;;;;;11.35;5.80;;;;;;;15.80;51.79;100562.56;4988874;28;20023;-78
2023/01/22 10:53:50;;;;;;;10.05;6.20;;;;;;;15.81;51.98;100559.06;4978929;28;20026;-78
2023/01/22 10:56:30;;;;;;;9.00;5.50;;;;;;;15.84;51.64;100556.34;4986581;28;20023;-79
2023/01/22 10:58:57;;;;;;;8.68;5.78;;;;;;;15.83;52.14;100552.00;4986197;28;20102;-79
2023/01/22 11:01:42;;;;;;;8.75;6.30;;;;;;;15.83;52.13;100541.47;4984628;28;20500;-79
2023/01/22 11:04:24;;;;;;;8.75;5.57;;;;;;;15.83;52.29;100538.84;4988325;28;20042;-79
2023/01/22 11:07:11;;;;;;;9.77;5.80;;;;;;;15.82;52.30;100539.75;4986053;28;20106;-78
2023/01/22 11:09:40;;;;;;;8.52;5.70;;;;;;;15.82;52.08;100531.84;4975381;28;20042;-78
2023/01/22 11:12:39;;;;;;;8.63;5.75;;;;;;;15.86;52.06;100531.75;4983848;28;20429;-78
2023/01/22 11:15:16;;;;;;;7.95;5.38;;;;;;;15.88;51.63;100527.34;4982684;28;20097;-79
2023/01/22 11:17:48;;;;;;;7.57;5.60;;;;;;;15.86;51.64;100524.75;4984931;28;20507;-78
2023/01/22 11:20:25;;;;;;;10.00;6.13;;;;;;;15.88;51.87;100522.09;4991780;28;20477;-79
2023/01/22 11:23:04;;;;;;;8.60;5.95;;;;;;;15.88;51.47;100512.41;4980539;28;20077;-79
2023/01/22 11:25:40;;;;;;;8.10;5.70;;;;;;;15.89;51.82;100518.53;4986948;28;20073;-79
2023/01/22 11:28:40;;;;;;;8.30;5.63;;;;;;;15.90;51.54;100510.63;4984920;28;20018;-79
2023/01/22 11:31:38;;;;;;;6.80;5.10;;;;;;;15.91;51.47;100506.19;4980142;28;20034;-78
2023/01/22 11:34:41;;;;;;;8.45;5.72;;;;;;;15.89;51.21;100513.28;4964992;28;20149;-78
2023/01/22 11:37:27;;;;;;;8.45;5.88;;;;;;;15.90;51.00;100501.84;4961837;28;20037;-78
2023/01/22 11:40:22;;;;;;;8.60;5.40;;;;;;;15.88;51.14;100490.50;4912157;29;20087;-78